sensor_id;sensor_type;location;lat;lon;timestamp;temperature;humidity
69747;DHT22;57018;50.278;19.134;2022-08-11T00:02:27;15.80;75.60
69747;DHT22;57018;50.278;19.134;2022-08-11T00:04:55;15.70;75.90
69747;DHT22;57018;50.278;19.134;2022-08-11T00:07:24;15.70;75.90
69747;DHT22;57018;50.278;19.134;2022-08-11T00:09:51;15.60;76.10
69747;DHT22;57018;50.278;19.134;2022-08-11T00:12:18;15.70;76.30
69747;DHT22;57018;50.278;19.134;2022-08-11T00:14:45;15.70;76.10
69747;DHT22;57018;50.278;19.134;2022-08-11T00:17:14;15.60;76.30
69747;DHT22;57018;50.278;19.134;2022-08-11T00:19:44;15.60;76.30
69747;DHT22;57018;50.278;19.134;2022-08-11T00:22:11;15.70;76.20
69747;DHT22;57018;50.278;19.134;2022-08-11T00:24:40;15.70;76.30
69747;DHT22;57018;50.278;19.134;2022-08-11T00:27:06;15.70;76.50
69747;DHT22;57018;50.278;19.134;2022-08-11T00:29:33;15.60;76.30
69747;DHT22;57018;50.278;19.134;2022-08-11T00:32:03;15.60;76.40
69747;DHT22;57018;50.278;19.134;2022-08-11T00:34:35;15.60;76.50
69747;DHT22;57018;50.278;19.134;2022-08-11T00:37:10;15.60;76.80
69747;DHT22;57018;50.278;19.134;2022-08-11T00:39:43;15.50;76.50
69747;DHT22;57018;50.278;19.134;2022-08-11T00:45:25;15.50;76.80
69747;DHT22;57018;50.278;19.134;2022-08-11T00:59:16;15.50;76.80
69747;DHT22;57018;50.278;19.134;2022-08-11T01:13:14;15.40;77.30
69747;DHT22;57018;50.278;19.134;2022-08-11T01:18:20;15.40;78.80
69747;DHT22;57018;50.278;19.134;2022-08-11T01:21:13;15.40;78.70
69747;DHT22;57018;50.278;19.134;2022-08-11T01:43:32;15.10;79.60
69747;DHT22;57018;50.278;19.134;2022-08-11T01:46:30;15.20;79.80
69747;DHT22;57018;50.278;19.134;2022-08-11T01:54:43;14.80;80.50
69747;DHT22;57018;50.278;19.134;2022-08-11T01:59:48;14.80;80.90
69747;DHT22;57018;50.278;19.134;2022-08-11T02:02:25;14.80;80.80
69747;DHT22;57018;50.278;19.134;2022-08-11T02:14:33;14.60;82.00
69747;DHT22;57018;50.278;19.134;2022-08-11T02:25:54;14.40;83.70
69747;DHT22;57018;50.278;19.134;2022-08-11T02:28:29;14.40;83.50
69747;DHT22;57018;50.278;19.134;2022-08-11T02:31:14;14.30;84.20
69747;DHT22;57018;50.278;19.134;2022-08-11T02:37:28;14.30;84.50
69747;DHT22;57018;50.278;19.134;2022-08-11T02:39:16;14.30;84.40
69747;DHT22;57018;50.278;19.134;2022-08-11T02:47:45;14.20;84.60
69747;DHT22;57018;50.278;19.134;2022-08-11T02:50:20;14.20;84.60
69747;DHT22;57018;50.278;19.134;2022-08-11T02:53:00;14.10;85.00
69747;DHT22;57018;50.278;19.134;2022-08-11T02:55:52;14.10;85.10
69747;DHT22;57018;50.278;19.134;2022-08-11T03:01:22;14.10;85.30
69747;DHT22;57018;50.278;19.134;2022-08-11T03:06:26;14.00;86.30
69747;DHT22;57018;50.278;19.134;2022-08-11T03:11:41;14.10;86.20
69747;DHT22;57018;50.278;19.134;2022-08-11T03:20:30;14.00;86.50
69747;DHT22;57018;50.278;19.134;2022-08-11T03:23:02;14.10;86.50
69747;DHT22;57018;50.278;19.134;2022-08-11T03:31:01;14.00;86.90
69747;DHT22;57018;50.278;19.134;2022-08-11T03:33:29;14.10;86.90
69747;DHT22;57018;50.278;19.134;2022-08-11T03:39:08;14.10;86.80
69747;DHT22;57018;50.278;19.134;2022-08-11T03:41:44;14.20;86.20
69747;DHT22;57018;50.278;19.134;2022-08-11T03:44:40;14.30;86.30
69747;DHT22;57018;50.278;19.134;2022-08-11T03:52:57;14.30;86.10
69747;DHT22;57018;50.278;19.134;2022-08-11T04:01:01;14.40;85.90
69747;DHT22;57018;50.278;19.134;2022-08-11T04:03:30;14.40;86.10
69747;DHT22;57018;50.278;19.134;2022-08-11T04:24:31;15.10;83.80
69747;DHT22;57018;50.278;19.134;2022-08-11T04:30:07;15.10;84.00
69747;DHT22;57018;50.278;19.134;2022-08-11T04:35:33;15.30;83.60
69747;DHT22;57018;50.278;19.134;2022-08-11T04:38:55;15.40;83.60
69747;DHT22;57018;50.278;19.134;2022-08-11T05:01:39;16.20;80.00
69747;DHT22;57018;50.278;19.134;2022-08-11T05:13:11;17.20;77.20
69747;DHT22;57018;50.278;19.134;2022-08-11T05:16:01;17.50;76.60
69747;DHT22;57018;50.278;19.134;2022-08-11T05:18:48;18.00;76.30
69747;DHT22;57018;50.278;19.134;2022-08-11T05:21:35;18.20;73.50
69747;DHT22;57018;50.278;19.134;2022-08-11T05:24:23;18.50;72.80
69747;DHT22;57018;50.278;19.134;2022-08-11T05:27:10;18.80;72.60
69747;DHT22;57018;50.278;19.134;2022-08-11T05:30:04;19.00;70.70
69747;DHT22;57018;50.278;19.134;2022-08-11T05:33:11;19.10;68.80
69747;DHT22;57018;50.278;19.134;2022-08-11T05:38:58;19.60;68.50
69747;DHT22;57018;50.278;19.134;2022-08-11T05:41:43;19.80;67.20
69747;DHT22;57018;50.278;19.134;2022-08-11T05:44:30;19.90;66.50
69747;DHT22;57018;50.278;19.134;2022-08-11T05:47:24;20.10;66.40
69747;DHT22;57018;50.278;19.134;2022-08-11T05:50:14;20.30;66.20
69747;DHT22;57018;50.278;19.134;2022-08-11T05:53:02;20.30;64.60
69747;DHT22;57018;50.278;19.134;2022-08-11T05:55:49;20.00;65.80
69747;DHT22;57018;50.278;19.134;2022-08-11T05:58:37;20.10;65.90
69747;DHT22;57018;50.278;19.134;2022-08-11T06:01:04;19.80;67.00
69747;DHT22;57018;50.278;19.134;2022-08-11T06:03:32;19.90;67.00
69747;DHT22;57018;50.278;19.134;2022-08-11T06:06:07;20.10;66.50
69747;DHT22;57018;50.278;19.134;2022-08-11T06:08:32;20.30;66.30
69747;DHT22;57018;50.278;19.134;2022-08-11T06:11:03;20.50;65.80
69747;DHT22;57018;50.278;19.134;2022-08-11T06:13:30;20.50;65.50
69747;DHT22;57018;50.278;19.134;2022-08-11T06:15:59;20.70;65.20
69747;DHT22;57018;50.278;19.134;2022-08-11T06:18:26;20.70;64.70
69747;DHT22;57018;50.278;19.134;2022-08-11T06:20:55;20.90;63.10
69747;DHT22;57018;50.278;19.134;2022-08-11T06:23:24;21.00;63.30
69747;DHT22;57018;50.278;19.134;2022-08-11T06:25:53;21.10;62.60
69747;DHT22;57018;50.278;19.134;2022-08-11T06:28:27;21.20;62.80
69747;DHT22;57018;50.278;19.134;2022-08-11T06:30:50;21.40;62.40
69747;DHT22;57018;50.278;19.134;2022-08-11T06:44:29;21.00;63.30
69747;DHT22;57018;50.278;19.134;2022-08-11T06:47:06;21.20;62.90
69747;DHT22;57018;50.278;19.134;2022-08-11T06:49:36;21.60;62.20
69747;DHT22;57018;50.278;19.134;2022-08-11T06:52:34;21.60;61.90
69747;DHT22;57018;50.278;19.134;2022-08-11T06:55:13;21.80;61.50
69747;DHT22;57018;50.278;19.134;2022-08-11T06:57:38;21.90;61.20
69747;DHT22;57018;50.278;19.134;2022-08-11T07:00:24;22.00;60.60
69747;DHT22;57018;50.278;19.134;2022-08-11T07:03:06;22.10;60.60
69747;DHT22;57018;50.278;19.134;2022-08-11T07:05:53;22.00;59.80
69747;DHT22;57018;50.278;19.134;2022-08-11T07:14:43;22.90;57.70
69747;DHT22;57018;50.278;19.134;2022-08-11T07:17:27;23.10;57.00
69747;DHT22;57018;50.278;19.134;2022-08-11T07:19:57;23.20;56.50
69747;DHT22;57018;50.278;19.134;2022-08-11T07:22:36;23.40;55.80
69747;DHT22;57018;50.278;19.134;2022-08-11T07:25:22;23.00;56.10
69747;DHT22;57018;50.278;19.134;2022-08-11T07:28:21;23.10;55.30
69747;DHT22;57018;50.278;19.134;2022-08-11T07:31:07;22.90;54.70
69747;DHT22;57018;50.278;19.134;2022-08-11T07:33:49;22.70;54.70
69747;DHT22;57018;50.278;19.134;2022-08-11T07:36:16;22.40;56.00
69747;DHT22;57018;50.278;19.134;2022-08-11T07:38:46;22.50;56.10
69747;DHT22;57018;50.278;19.134;2022-08-11T07:41:16;22.50;55.90
69747;DHT22;57018;50.278;19.134;2022-08-11T07:43:46;22.60;55.20
69747;DHT22;57018;50.278;19.134;2022-08-11T07:46:15;22.60;54.80
69747;DHT22;57018;50.278;19.134;2022-08-11T07:49:02;22.50;54.50
69747;DHT22;57018;50.278;19.134;2022-08-11T07:51:48;22.70;54.80
69747;DHT22;57018;50.278;19.134;2022-08-11T07:54:34;22.70;54.90
69747;DHT22;57018;50.278;19.134;2022-08-11T07:57:03;22.80;55.10
69747;DHT22;57018;50.278;19.134;2022-08-11T07:59:49;22.90;54.50
69747;DHT22;57018;50.278;19.134;2022-08-11T08:02:34;23.00;54.70
69747;DHT22;57018;50.278;19.134;2022-08-11T08:05:20;23.00;53.90
69747;DHT22;57018;50.278;19.134;2022-08-11T08:08:06;23.10;53.80
69747;DHT22;57018;50.278;19.134;2022-08-11T08:10:53;23.60;52.90
69747;DHT22;57018;50.278;19.134;2022-08-11T08:13:41;23.90;50.80
69747;DHT22;57018;50.278;19.134;2022-08-11T08:16:28;24.00;50.30
69747;DHT22;57018;50.278;19.134;2022-08-11T08:19:16;24.00;50.10
69747;DHT22;57018;50.278;19.134;2022-08-11T08:21:43;24.10;48.90
69747;DHT22;57018;50.278;19.134;2022-08-11T08:24:10;24.00;49.10
69747;DHT22;57018;50.278;19.134;2022-08-11T08:26:37;24.00;49.70
69747;DHT22;57018;50.278;19.134;2022-08-11T08:29:28;24.10;48.90
69747;DHT22;57018;50.278;19.134;2022-08-11T08:32:15;24.40;49.40
69747;DHT22;57018;50.278;19.134;2022-08-11T08:34:43;24.50;48.30
69747;DHT22;57018;50.278;19.134;2022-08-11T08:37:11;24.60;46.40
69747;DHT22;57018;50.278;19.134;2022-08-11T08:39:38;24.70;46.90
69747;DHT22;57018;50.278;19.134;2022-08-11T08:42:09;24.90;46.60
69747;DHT22;57018;50.278;19.134;2022-08-11T08:44:42;24.60;47.00
69747;DHT22;57018;50.278;19.134;2022-08-11T08:47:14;24.30;47.40
69747;DHT22;57018;50.278;19.134;2022-08-11T08:49:49;24.20;47.80
69747;DHT22;57018;50.278;19.134;2022-08-11T08:52:20;23.60;47.40
69747;DHT22;57018;50.278;19.134;2022-08-11T08:54:48;23.50;48.50
69747;DHT22;57018;50.278;19.134;2022-08-11T08:57:16;23.30;48.90
69747;DHT22;57018;50.278;19.134;2022-08-11T08:59:46;23.10;49.70
69747;DHT22;57018;50.278;19.134;2022-08-11T09:02:15;23.20;50.10
69747;DHT22;57018;50.278;19.134;2022-08-11T09:04:44;22.90;48.50
69747;DHT22;57018;50.278;19.134;2022-08-11T09:07:14;22.90;48.70
69747;DHT22;57018;50.278;19.134;2022-08-11T09:09:49;22.90;48.10
69747;DHT22;57018;50.278;19.134;2022-08-11T09:12:18;22.90;47.60
69747;DHT22;57018;50.278;19.134;2022-08-11T09:14:49;23.10;49.20
69747;DHT22;57018;50.278;19.134;2022-08-11T09:20:20;23.00;49.30
69747;DHT22;57018;50.278;19.134;2022-08-11T09:22:48;23.30;48.70
69747;DHT22;57018;50.278;19.134;2022-08-11T09:25:36;23.60;47.10
69747;DHT22;57018;50.278;19.134;2022-08-11T09:28:21;23.70;46.80
69747;DHT22;57018;50.278;19.134;2022-08-11T09:30:51;23.60;47.70
69747;DHT22;57018;50.278;19.134;2022-08-11T09:33:19;23.40;47.80
69747;DHT22;57018;50.278;19.134;2022-08-11T09:35:48;23.50;47.60
69747;DHT22;57018;50.278;19.134;2022-08-11T09:38:17;23.40;47.80
69747;DHT22;57018;50.278;19.134;2022-08-11T09:41:07;23.40;47.60
69747;DHT22;57018;50.278;19.134;2022-08-11T09:43:44;23.20;45.30
69747;DHT22;57018;50.278;19.134;2022-08-11T09:46:26;23.20;46.10
69747;DHT22;57018;50.278;19.134;2022-08-11T09:48:56;23.30;46.50
69747;DHT22;57018;50.278;19.134;2022-08-11T09:51:29;23.40;46.50
69747;DHT22;57018;50.278;19.134;2022-08-11T09:53:52;23.50;46.90
69747;DHT22;57018;50.278;19.134;2022-08-11T09:56:21;23.70;46.40
69747;DHT22;57018;50.278;19.134;2022-08-11T09:59:07;24.00;46.10
69747;DHT22;57018;50.278;19.134;2022-08-11T10:01:45;24.20;45.80
69747;DHT22;57018;50.278;19.134;2022-08-11T10:04:22;24.10;45.20
69747;DHT22;57018;50.278;19.134;2022-08-11T10:06:49;24.20;45.50
69747;DHT22;57018;50.278;19.134;2022-08-11T10:12:20;24.80;43.30
69747;DHT22;57018;50.278;19.134;2022-08-11T10:14:51;25.00;42.60
69747;DHT22;57018;50.278;19.134;2022-08-11T10:17:38;25.20;42.10
69747;DHT22;57018;50.278;19.134;2022-08-11T10:20:09;25.20;41.20
69747;DHT22;57018;50.278;19.134;2022-08-11T10:22:36;25.20;42.50
69747;DHT22;57018;50.278;19.134;2022-08-11T10:25:21;25.10;40.60
69747;DHT22;57018;50.278;19.134;2022-08-11T10:28:07;24.90;41.30
69747;DHT22;57018;50.278;19.134;2022-08-11T10:30:36;24.90;41.00
69747;DHT22;57018;50.278;19.134;2022-08-11T10:33:21;25.00;41.30
69747;DHT22;57018;50.278;19.134;2022-08-11T10:36:07;25.00;41.50
69747;DHT22;57018;50.278;19.134;2022-08-11T10:38:34;25.10;41.40
69747;DHT22;57018;50.278;19.134;2022-08-11T10:41:01;25.00;41.10
69747;DHT22;57018;50.278;19.134;2022-08-11T10:43:46;24.80;41.10
69747;DHT22;57018;50.278;19.134;2022-08-11T10:46:12;24.80;41.40
69747;DHT22;57018;50.278;19.134;2022-08-11T10:48:58;24.60;41.40
69747;DHT22;57018;50.278;19.134;2022-08-11T10:51:26;24.70;40.90
69747;DHT22;57018;50.278;19.134;2022-08-11T10:54:13;24.90;41.00
69747;DHT22;57018;50.278;19.134;2022-08-11T10:56:59;25.50;40.50
69747;DHT22;57018;50.278;19.134;2022-08-11T10:59:44;25.70;39.90
69747;DHT22;57018;50.278;19.134;2022-08-11T11:02:13;25.20;38.00
69747;DHT22;57018;50.278;19.134;2022-08-11T11:07:29;24.90;38.80
69747;DHT22;57018;50.278;19.134;2022-08-11T11:09:56;24.90;39.20
69747;DHT22;57018;50.278;19.134;2022-08-11T11:12:38;24.90;39.00
69747;DHT22;57018;50.278;19.134;2022-08-11T11:15:25;24.70;39.40
69747;DHT22;57018;50.278;19.134;2022-08-11T11:20:59;24.80;39.30
69747;DHT22;57018;50.278;19.134;2022-08-11T11:26:34;24.90;39.10
69747;DHT22;57018;50.278;19.134;2022-08-11T11:29:31;25.20;39.30
69747;DHT22;57018;50.278;19.134;2022-08-11T11:32:23;25.50;38.10
69747;DHT22;57018;50.278;19.134;2022-08-11T11:37:31;25.30;38.90
69747;DHT22;57018;50.278;19.134;2022-08-11T11:39:59;25.20;39.30
69747;DHT22;57018;50.278;19.134;2022-08-11T11:42:27;24.90;38.40
69747;DHT22;57018;50.278;19.134;2022-08-11T11:44:54;24.60;38.60
69747;DHT22;57018;50.278;19.134;2022-08-11T11:47:20;24.80;38.70
69747;DHT22;57018;50.278;19.134;2022-08-11T11:49:48;25.20;38.00
69747;DHT22;57018;50.278;19.134;2022-08-11T11:52:17;25.60;35.90
69747;DHT22;57018;50.278;19.134;2022-08-11T11:54:45;26.30;35.70
69747;DHT22;57018;50.278;19.134;2022-08-11T11:57:17;26.30;36.30
69747;DHT22;57018;50.278;19.134;2022-08-11T12:00:07;26.40;35.90
69747;DHT22;57018;50.278;19.134;2022-08-11T12:02:52;25.70;36.90
69747;DHT22;57018;50.278;19.134;2022-08-11T12:05:23;25.30;37.00
69747;DHT22;57018;50.278;19.134;2022-08-11T12:07:51;25.30;36.20
69747;DHT22;57018;50.278;19.134;2022-08-11T12:13:12;25.00;38.90
69747;DHT22;57018;50.278;19.134;2022-08-11T12:15:57;24.60;40.00
69747;DHT22;57018;50.278;19.134;2022-08-11T12:18:27;24.90;40.60
69747;DHT22;57018;50.278;19.134;2022-08-11T12:20:53;25.00;39.80
69747;DHT22;57018;50.278;19.134;2022-08-11T12:23:19;25.20;38.90
69747;DHT22;57018;50.278;19.134;2022-08-11T12:26:04;25.20;38.50
69747;DHT22;57018;50.278;19.134;2022-08-11T12:28:48;25.20;37.60
69747;DHT22;57018;50.278;19.134;2022-08-11T12:31:15;25.40;36.30
69747;DHT22;57018;50.278;19.134;2022-08-11T12:33:41;25.50;36.70
69747;DHT22;57018;50.278;19.134;2022-08-11T12:36:09;25.70;37.00
69747;DHT22;57018;50.278;19.134;2022-08-11T12:38:38;25.40;37.00
69747;DHT22;57018;50.278;19.134;2022-08-11T12:41:04;25.70;37.50
69747;DHT22;57018;50.278;19.134;2022-08-11T12:43:49;25.60;37.60
69747;DHT22;57018;50.278;19.134;2022-08-11T12:46:36;25.10;35.40
69747;DHT22;57018;50.278;19.134;2022-08-11T12:49:12;24.90;35.00
69747;DHT22;57018;50.278;19.134;2022-08-11T12:52:05;24.80;35.50
69747;DHT22;57018;50.278;19.134;2022-08-11T12:57:10;24.90;36.30
69747;DHT22;57018;50.278;19.134;2022-08-11T12:59:48;25.00;36.80
69747;DHT22;57018;50.278;19.134;2022-08-11T13:02:33;25.10;37.40
69747;DHT22;57018;50.278;19.134;2022-08-11T13:05:19;25.30;37.70
69747;DHT22;57018;50.278;19.134;2022-08-11T13:07:47;25.70;37.50
69747;DHT22;57018;50.278;19.134;2022-08-11T13:10:15;25.90;37.70
69747;DHT22;57018;50.278;19.134;2022-08-11T13:13:02;25.90;37.30
69747;DHT22;57018;50.278;19.134;2022-08-11T13:15:29;25.60;37.30
69747;DHT22;57018;50.278;19.134;2022-08-11T13:17:58;25.20;36.30
69747;DHT22;57018;50.278;19.134;2022-08-11T13:20:24;25.00;33.10
69747;DHT22;57018;50.278;19.134;2022-08-11T13:22:54;24.80;34.50
69747;DHT22;57018;50.278;19.134;2022-08-11T13:25:24;24.70;35.60
69747;DHT22;57018;50.278;19.134;2022-08-11T13:27:53;24.60;36.70
69747;DHT22;57018;50.278;19.134;2022-08-11T13:30:22;24.70;38.00
69747;DHT22;57018;50.278;19.134;2022-08-11T13:33:10;24.90;37.80
69747;DHT22;57018;50.278;19.134;2022-08-11T13:35:37;25.20;36.20
69747;DHT22;57018;50.278;19.134;2022-08-11T13:38:04;25.30;35.00
69747;DHT22;57018;50.278;19.134;2022-08-11T13:40:32;25.50;34.80
69747;DHT22;57018;50.278;19.134;2022-08-11T13:42:59;25.70;34.50
69747;DHT22;57018;50.278;19.134;2022-08-11T13:45:25;26.10;34.50
69747;DHT22;57018;50.278;19.134;2022-08-11T13:47:54;26.30;34.30
69747;DHT22;57018;50.278;19.134;2022-08-11T13:50:22;26.30;35.40
69747;DHT22;57018;50.278;19.134;2022-08-11T13:52:51;26.00;39.80
69747;DHT22;57018;50.278;19.134;2022-08-11T13:55:17;24.60;53.60
69747;DHT22;57018;50.278;19.134;2022-08-11T13:57:53;22.50;67.80
69747;DHT22;57018;50.278;19.134;2022-08-11T14:00:17;21.10;72.80
69747;DHT22;57018;50.278;19.134;2022-08-11T14:02:46;20.10;76.60
69747;DHT22;57018;50.278;19.134;2022-08-11T14:05:15;19.40;76.40
69747;DHT22;57018;50.278;19.134;2022-08-11T14:07:54;19.00;79.90
69747;DHT22;57018;50.278;19.134;2022-08-11T14:10:23;18.70;81.70
69747;DHT22;57018;50.278;19.134;2022-08-11T14:12:58;18.50;80.10
69747;DHT22;57018;50.278;19.134;2022-08-11T14:15:44;18.30;81.30
69747;DHT22;57018;50.278;19.134;2022-08-11T14:18:21;18.10;83.70
69747;DHT22;57018;50.278;19.134;2022-08-11T14:20:54;18.10;82.20
69747;DHT22;57018;50.278;19.134;2022-08-11T14:23:40;18.10;82.70
69747;DHT22;57018;50.278;19.134;2022-08-11T14:26:12;18.00;83.10
69747;DHT22;57018;50.278;19.134;2022-08-11T14:28:50;18.00;83.40
69747;DHT22;57018;50.278;19.134;2022-08-11T14:31:22;18.00;80.60
69747;DHT22;57018;50.278;19.134;2022-08-11T14:33:55;18.10;81.00
69747;DHT22;57018;50.278;19.134;2022-08-11T14:36:23;18.10;81.90
69747;DHT22;57018;50.278;19.134;2022-08-11T14:38:51;18.20;81.30
69747;DHT22;57018;50.278;19.134;2022-08-11T14:41:19;18.10;81.70
69747;DHT22;57018;50.278;19.134;2022-08-11T14:44:05;18.10;81.80
69747;DHT22;57018;50.278;19.134;2022-08-11T14:46:52;18.10;82.10
69747;DHT22;57018;50.278;19.134;2022-08-11T14:49:33;18.10;81.60
69747;DHT22;57018;50.278;19.134;2022-08-11T14:52:02;18.20;80.80
69747;DHT22;57018;50.278;19.134;2022-08-11T14:54:30;18.30;81.00
69747;DHT22;57018;50.278;19.134;2022-08-11T14:57:16;18.40;79.00
69747;DHT22;57018;50.278;19.134;2022-08-11T14:59:45;18.60;78.50
69747;DHT22;57018;50.278;19.134;2022-08-11T15:02:14;18.90;78.70
69747;DHT22;57018;50.278;19.134;2022-08-11T15:05:00;19.20;78.20
69747;DHT22;57018;50.278;19.134;2022-08-11T15:07:28;19.40;79.20
69747;DHT22;57018;50.278;19.134;2022-08-11T15:09:58;19.70;78.70
69747;DHT22;57018;50.278;19.134;2022-08-11T15:12:25;19.60;76.20
69747;DHT22;57018;50.278;19.134;2022-08-11T15:14:53;19.50;76.00
69747;DHT22;57018;50.278;19.134;2022-08-11T15:17:39;19.70;76.60
69747;DHT22;57018;50.278;19.134;2022-08-11T15:20:12;19.70;76.50
69747;DHT22;57018;50.278;19.134;2022-08-11T15:22:57;19.90;75.40
69747;DHT22;57018;50.278;19.134;2022-08-11T15:25:44;20.00;75.30
69747;DHT22;57018;50.278;19.134;2022-08-11T15:28:12;20.10;75.30
69747;DHT22;57018;50.278;19.134;2022-08-11T15:31:00;20.30;73.80
69747;DHT22;57018;50.278;19.134;2022-08-11T15:33:49;20.50;72.50
69747;DHT22;57018;50.278;19.134;2022-08-11T15:36:34;20.50;71.40
69747;DHT22;57018;50.278;19.134;2022-08-11T15:39:22;20.60;72.00
69747;DHT22;57018;50.278;19.134;2022-08-11T15:42:06;20.70;71.00
69747;DHT22;57018;50.278;19.134;2022-08-11T15:44:55;20.90;69.50
69747;DHT22;57018;50.278;19.134;2022-08-11T15:47:51;20.80;70.00
69747;DHT22;57018;50.278;19.134;2022-08-11T15:50:19;20.60;71.70
69747;DHT22;57018;50.278;19.134;2022-08-11T15:52:48;20.70;71.60
69747;DHT22;57018;50.278;19.134;2022-08-11T15:55:15;20.70;70.20
69747;DHT22;57018;50.278;19.134;2022-08-11T15:57:44;20.70;68.00
69747;DHT22;57018;50.278;19.134;2022-08-11T16:00:31;20.90;67.60
69747;DHT22;57018;50.278;19.134;2022-08-11T16:03:18;20.80;67.20
69747;DHT22;57018;50.278;19.134;2022-08-11T16:06:03;20.80;68.60
69747;DHT22;57018;50.278;19.134;2022-08-11T16:08:31;20.90;67.00
69747;DHT22;57018;50.278;19.134;2022-08-11T16:10:59;20.70;67.90
69747;DHT22;57018;50.278;19.134;2022-08-11T16:13:28;20.50;69.20
69747;DHT22;57018;50.278;19.134;2022-08-11T16:15:57;20.60;69.10
69747;DHT22;57018;50.278;19.134;2022-08-11T16:18:50;20.60;69.90
69747;DHT22;57018;50.278;19.134;2022-08-11T16:21:39;20.60;69.80
69747;DHT22;57018;50.278;19.134;2022-08-11T16:23:49;20.50;71.30
69747;DHT22;57018;50.278;19.134;2022-08-11T16:26:19;20.40;71.10
69747;DHT22;57018;50.278;19.134;2022-08-11T16:28:53;20.40;70.40
69747;DHT22;57018;50.278;19.134;2022-08-11T16:31:23;20.40;71.30
69747;DHT22;57018;50.278;19.134;2022-08-11T16:33:52;20.40;69.80
69747;DHT22;57018;50.278;19.134;2022-08-11T16:36:21;20.50;70.20
69747;DHT22;57018;50.278;19.134;2022-08-11T16:39:08;20.30;69.00
69747;DHT22;57018;50.278;19.134;2022-08-11T16:41:43;20.20;68.90
69747;DHT22;57018;50.278;19.134;2022-08-11T16:44:29;20.30;69.80
69747;DHT22;57018;50.278;19.134;2022-08-11T16:47:16;20.20;69.00
69747;DHT22;57018;50.278;19.134;2022-08-11T16:49:45;20.10;69.60
69747;DHT22;57018;50.278;19.134;2022-08-11T16:52:12;20.10;69.70
69747;DHT22;57018;50.278;19.134;2022-08-11T16:54:40;20.10;69.70
69747;DHT22;57018;50.278;19.134;2022-08-11T16:57:25;20.20;70.70
69747;DHT22;57018;50.278;19.134;2022-08-11T17:00:12;20.10;71.40
69747;DHT22;57018;50.278;19.134;2022-08-11T17:02:51;20.10;71.40
69747;DHT22;57018;50.278;19.134;2022-08-11T17:05:40;20.20;70.70
69747;DHT22;57018;50.278;19.134;2022-08-11T17:08:31;20.20;70.70
69747;DHT22;57018;50.278;19.134;2022-08-11T17:11:17;20.10;71.70
69747;DHT22;57018;50.278;19.134;2022-08-11T19:54:37;17.60;80.20
69747;DHT22;57018;50.278;19.134;2022-08-11T19:57:24;17.60;80.30
69747;DHT22;57018;50.278;19.134;2022-08-11T20:00:17;17.60;80.40
69747;DHT22;57018;50.278;19.134;2022-08-11T20:03:06;17.50;80.90
69747;DHT22;57018;50.278;19.134;2022-08-11T20:05:52;17.40;81.30
69747;DHT22;57018;50.278;19.134;2022-08-11T20:08:40;17.30;81.40
69747;DHT22;57018;50.278;19.134;2022-08-11T20:11:30;17.40;81.50
69747;DHT22;57018;50.278;19.134;2022-08-11T20:14:17;17.30;82.00
69747;DHT22;57018;50.278;19.134;2022-08-11T20:17:04;17.20;81.90
69747;DHT22;57018;50.278;19.134;2022-08-11T20:19:50;17.10;82.00
69747;DHT22;57018;50.278;19.134;2022-08-11T20:22:36;17.00;82.80
69747;DHT22;57018;50.278;19.134;2022-08-11T20:25:22;17.00;83.30
69747;DHT22;57018;50.278;19.134;2022-08-11T20:28:08;17.00;83.40
69747;DHT22;57018;50.278;19.134;2022-08-11T20:30:54;17.00;83.90
69747;DHT22;57018;50.278;19.134;2022-08-11T20:33:41;16.90;84.20
69747;DHT22;57018;50.278;19.134;2022-08-11T20:36:29;16.80;84.00
69747;DHT22;57018;50.278;19.134;2022-08-11T20:39:15;16.80;84.20
69747;DHT22;57018;50.278;19.134;2022-08-11T20:42:02;16.70;84.60
69747;DHT22;57018;50.278;19.134;2022-08-11T20:44:48;16.70;84.70
69747;DHT22;57018;50.278;19.134;2022-08-11T20:47:35;16.70;84.60
69747;DHT22;57018;50.278;19.134;2022-08-11T20:50:21;16.60;84.80
69747;DHT22;57018;50.278;19.134;2022-08-11T20:53:08;16.60;84.90
69747;DHT22;57018;50.278;19.134;2022-08-11T20:55:54;16.50;85.30
69747;DHT22;57018;50.278;19.134;2022-08-11T20:58:41;16.50;85.30
69747;DHT22;57018;50.278;19.134;2022-08-11T21:01:27;16.50;85.80
69747;DHT22;57018;50.278;19.134;2022-08-11T21:04:13;16.40;85.60
69747;DHT22;57018;50.278;19.134;2022-08-11T21:07:03;16.40;86.40
69747;DHT22;57018;50.278;19.134;2022-08-11T21:09:50;16.30;86.60
69747;DHT22;57018;50.278;19.134;2022-08-11T21:12:39;16.20;86.70
69747;DHT22;57018;50.278;19.134;2022-08-11T21:15:26;16.30;86.70
69747;DHT22;57018;50.278;19.134;2022-08-11T21:18:12;16.20;86.60
69747;DHT22;57018;50.278;19.134;2022-08-11T21:20:58;16.30;86.80
69747;DHT22;57018;50.278;19.134;2022-08-11T21:23:46;16.20;87.00
69747;DHT22;57018;50.278;19.134;2022-08-11T21:26:32;16.20;87.20
69747;DHT22;57018;50.278;19.134;2022-08-11T21:29:18;16.20;87.00
69747;DHT22;57018;50.278;19.134;2022-08-11T21:32:03;16.10;87.50
69747;DHT22;57018;50.278;19.134;2022-08-11T21:34:49;16.10;87.90
69747;DHT22;57018;50.278;19.134;2022-08-11T21:37:35;16.10;88.30
69747;DHT22;57018;50.278;19.134;2022-08-11T21:40:21;16.00;88.10
69747;DHT22;57018;50.278;19.134;2022-08-11T21:43:07;16.00;88.10
69747;DHT22;57018;50.278;19.134;2022-08-11T21:45:55;16.00;88.30
69747;DHT22;57018;50.278;19.134;2022-08-11T21:48:41;15.90;88.20
69747;DHT22;57018;50.278;19.134;2022-08-11T21:51:27;15.90;88.60
69747;DHT22;57018;50.278;19.134;2022-08-11T21:54:12;15.80;89.00
69747;DHT22;57018;50.278;19.134;2022-08-11T21:56:58;15.80;89.40
69747;DHT22;57018;50.278;19.134;2022-08-11T21:59:59;15.80;89.40
69747;DHT22;57018;50.278;19.134;2022-08-11T22:02:45;15.70;89.50
69747;DHT22;57018;50.278;19.134;2022-08-11T22:05:32;15.70;90.10
69747;DHT22;57018;50.278;19.134;2022-08-11T22:08:17;15.60;90.20
69747;DHT22;57018;50.278;19.134;2022-08-11T22:11:05;15.50;90.20
69747;DHT22;57018;50.278;19.134;2022-08-11T22:13:50;15.60;90.10
69747;DHT22;57018;50.278;19.134;2022-08-11T22:16:35;15.50;91.10
69747;DHT22;57018;50.278;19.134;2022-08-11T22:19:20;15.40;91.50
69747;DHT22;57018;50.278;19.134;2022-08-11T22:22:07;15.30;92.80
69747;DHT22;57018;50.278;19.134;2022-08-11T22:24:53;15.40;91.30
69747;DHT22;57018;50.278;19.134;2022-08-11T22:27:38;15.40;93.10
69747;DHT22;57018;50.278;19.134;2022-08-11T22:30:23;15.40;92.90
69747;DHT22;57018;50.278;19.134;2022-08-11T22:33:08;15.40;92.80
69747;DHT22;57018;50.278;19.134;2022-08-11T22:35:54;15.30;93.20